Time;durP1;ratioP1;P1;durP2;ratioP2;P2;SDS_P1;SDS_P2;PMS_P1;PMS_P2;Temp;Humidity;BMP_temperature;BMP_pressure;BME280_temperature;BME280_humidity;BME280_pressure;Samples;Min_cycle;Max_cycle;Signal;HPM_P1;HPM_P2
2023/11/11 00:02:10;;;;;;;999.67;907.20;;;6.50;99.90;;;;;;6154874;23;20494;-75
2023/11/11 00:04:38;;;;;;;1000.10;906.10;;;7.10;99.90;;;;;;6155000;23;20410;-75
2023/11/11 00:07:05;;;;;;;984.93;892.43;;;6.40;99.90;;;;;;6155134;23;20438;-75
2023/11/11 00:09:32;;;;;;;979.77;888.03;;;7.10;99.90;;;;;;6154620;23;20912;-75
2023/11/11 00:12:02;;;;;;;973.57;881.30;;;6.50;99.90;;;;;;6154841;23;20410;-75
2023/11/11 00:14:29;;;;;;;970.73;878.07;;;7.00;99.90;;;;;;6154994;23;20706;-75
2023/11/11 00:16:57;;;;;;;1000.17;905.67;;;6.50;99.90;;;;;;6154691;23;20407;-75
2023/11/11 00:19:24;;;;;;;993.23;899.63;;;7.30;99.90;;;;;;6154835;23;20741;-74
2023/11/11 00:21:53;;;;;;;994.30;899.47;;;6.90;99.90;;;;;;6154726;23;20415;-74
2023/11/11 00:24:20;;;;;;;979.20;886.43;;;6.90;99.90;;;;;;6155238;23;20720;-74
2023/11/11 00:26:48;;;;;;;978.57;886.50;;;7.00;99.90;;;;;;6154619;23;20519;-75
2023/11/11 00:29:16;;;;;;;989.07;895.83;;;6.60;99.90;;;;;;6154765;23;20764;-74
2023/11/11 00:31:46;;;;;;;976.83;882.53;;;6.70;99.90;;;;;;6154660;23;20410;-74
2023/11/11 00:34:16;;;;;;;983.43;889.63;;;6.70;99.90;;;;;;6154691;23;20422;-75
2023/11/11 00:36:45;;;;;;;982.73;887.50;;;7.30;99.90;;;;;;6154610;23;20447;-75
2023/11/11 00:39:12;;;;;;;981.77;886.10;;;6.80;99.90;;;;;;6154805;23;20443;-75
2023/11/11 00:41:39;;;;;;;965.27;870.27;;;7.00;99.90;;;;;;6155128;23;20692;-72
2023/11/11 00:44:09;;;;;;;980.70;885.60;;;7.30;99.90;;;;;;6154827;23;20803;-71
2023/11/11 00:46:37;;;;;;;947.20;853.17;;;7.40;99.90;;;;;;6154867;23;20478;-72
2023/11/11 00:49:04;;;;;;;952.17;857.90;;;6.70;99.90;;;;;;6154462;23;20891;-72
2023/11/11 00:51:32;;;;;;;954.17;859.90;;;7.00;99.90;;;;;;6154608;23;20443;-72
2023/11/11 00:54:00;;;;;;;955.17;861.10;;;6.80;99.90;;;;;;6154597;23;20453;-72
2023/11/11 00:56:27;;;;;;;950.77;857.27;;;6.80;99.90;;;;;;6154496;23;20426;-72
2023/11/11 00:58:53;;;;;;;971.97;877.00;;;6.80;99.90;;;;;;6154431;23;20450;-72
2023/11/11 01:01:20;;;;;;;970.37;877.00;;;7.50;99.90;;;;;;6154927;23;20785;-72
2023/11/11 01:03:47;;;;;;;961.90;867.20;;;7.30;99.90;;;;;;6154425;23;20963;-72
2023/11/11 01:06:14;;;;;;;960.63;867.63;;;7.40;99.90;;;;;;6154792;23;20439;-72
2023/11/11 01:08:43;;;;;;;1006.87;912.90;;;7.20;99.90;;;;;;6154302;23;20891;-74
2023/11/11 01:11:10;;;;;;;1070.40;971.63;;;7.20;99.90;;;;;;6165064;23;20826;-75
2023/11/11 01:13:37;;;;;;;1041.83;941.30;;;7.50;99.90;;;;;;6166208;23;20795;-74
2023/11/11 01:16:04;;;;;;;1015.47;916.67;;;6.90;99.90;;;;;;6156310;23;20441;-74
2023/11/11 01:18:31;;;;;;;1013.27;914.53;;;6.80;99.90;;;;;;6156090;23;20409;-73
2023/11/11 01:20:59;;;;;;;1017.43;918.63;;;7.00;99.90;;;;;;6156602;23;20416;-72
2023/11/11 01:23:26;;;;;;;1011.33;912.20;;;6.70;99.90;;;;;;6156113;23;20420;-72
2023/11/11 01:25:54;;;;;;;1021.33;922.33;;;6.90;99.90;;;;;;6156469;23;20458;-72
2023/11/11 01:28:22;;;;;;;1049.23;950.63;;;6.60;99.90;;;;;;6156340;23;20438;-72
2023/11/11 01:30:49;;;;;;;1052.43;953.57;;;6.70;99.90;;;;;;6156585;23;20418;-72
2023/11/11 01:33:16;;;;;;;1044.37;946.63;;;7.10;99.90;;;;;;6156190;23;20418;-72
2023/11/11 01:35:43;;;;;;;1079.50;977.67;;;7.20;99.90;;;;;;6156436;23;20736;-72
2023/11/11 01:38:12;;;;;;;1068.17;969.60;;;6.60;99.90;;;;;;6156431;23;20407;-75
2023/11/11 01:40:40;;;;;;;1072.07;972.97;;;6.50;99.90;;;;;;6156066;23;20410;-74
2023/11/11 01:43:12;;;;;;;1072.37;974.17;;;6.80;99.90;;;;;;6156355;23;20421;-74
2023/11/11 01:45:41;;;;;;;1060.13;962.53;;;6.60;99.90;;;;;;6156643;23;20482;-74
2023/11/11 01:48:08;;;;;;;1066.50;969.40;;;6.40;99.90;;;;;;6155653;23;20469;-72
2023/11/11 01:50:37;;;;;;;1087.70;988.70;;;6.70;99.90;;;;;;6156229;23;20790;-72
2023/11/11 01:53:05;;;;;;;1077.63;978.67;;;7.10;99.90;;;;;;6156253;23;20410;-72
2023/11/11 01:55:32;;;;;;;1034.63;936.57;;;6.60;99.90;;;;;;6156250;23;20411;-74
2023/11/11 01:58:00;;;;;;;1035.13;936.73;;;6.50;99.90;;;;;;6155742;23;20406;-75
2023/11/11 02:00:32;;;;;;;1027.63;929.53;;;6.60;99.90;;;;;;6156194;23;20501;-74
2023/11/11 02:02:59;;;;;;;1039.40;939.90;;;6.60;99.90;;;;;;6156322;23;20768;-74
2023/11/11 02:05:26;;;;;;;1030.60;931.33;;;7.00;99.90;;;;;;6155749;23;20890;-74
2023/11/11 02:07:53;;;;;;;1042.57;942.30;;;6.70;99.90;;;;;;6155813;23;20832;-75
2023/11/11 02:10:21;;;;;;;1060.53;958.27;;;7.00;99.90;;;;;;6156111;23;20417;-75
2023/11/11 02:12:48;;;;;;;1045.03;945.03;;;7.00;99.90;;;;;;6156097;23;20414;-75
2023/11/11 02:15:16;;;;;;;1058.23;957.87;;;6.30;99.90;;;;;;6155730;23;20465;-75
2023/11/11 02:17:45;;;;;;;1044.17;946.97;;;6.30;99.90;;;;;;6155907;23;20412;-74
2023/11/11 02:20:12;;;;;;;1040.13;941.93;;;6.50;99.90;;;;;;6155963;23;20417;-74
2023/11/11 02:22:39;;;;;;;1050.57;950.13;;;6.60;99.90;;;;;;6155683;23;20493;-74
2023/11/11 02:25:09;;;;;;;1060.23;959.93;;;6.30;99.90;;;;;;6155876;23;20417;-74
2023/11/11 02:27:36;;;;;;;1071.47;970.67;;;6.40;99.90;;;;;;6155197;23;20463;-75
2023/11/11 02:30:06;;;;;;;1074.03;972.07;;;7.00;99.90;;;;;;6155908;23;20470;-74
2023/11/11 02:32:33;;;;;;;1068.83;969.43;;;6.70;99.90;;;;;;6155444;23;20426;-75
2023/11/11 02:35:00;;;;;;;1067.47;968.07;;;6.70;99.90;;;;;;6155504;23;20863;-75
2023/11/11 02:37:27;;;;;;;1062.50;963.77;;;7.00;99.90;;;;;;6155301;23;20437;-75
2023/11/11 02:39:54;;;;;;;1054.53;957.27;;;6.80;99.90;;;;;;6155815;23;20410;-75
2023/11/11 02:42:23;;;;;;;1044.37;949.20;;;6.80;99.90;;;;;;6155452;23;20417;-74
2023/11/11 02:44:50;;;;;;;1089.33;991.13;;;6.80;99.90;;;;;;6155241;23;20410;-74
2023/11/11 02:47:16;;;;;;;1088.13;991.87;;;6.30;99.90;;;;;;6155404;23;20446;-74
2023/11/11 02:49:44;;;;;;;1122.97;999.90;;;6.90;99.90;;;;;;6155727;23;20496;-75
2023/11/11 02:52:11;;;;;;;1089.60;993.13;;;6.20;99.90;;;;;;6155378;23;20918;-74
2023/11/11 02:54:38;;;;;;;1091.20;995.67;;;6.80;99.90;;;;;;6155596;23;20493;-74
2023/11/11 02:57:05;;;;;;;1098.37;999.90;;;6.40;99.90;;;;;;6155584;23;20444;-74
2023/11/11 02:59:33;;;;;;;1082.13;987.57;;;7.10;99.90;;;;;;6155327;23;20480;-75
2023/11/11 03:02:01;;;;;;;1091.27;996.97;;;7.10;99.90;;;;;;6155614;23;20410;-71
2023/11/11 03:04:28;;;;;;;1068.87;977.07;;;7.00;99.90;;;;;;6155195;23;20411;-72
2023/11/11 03:06:55;;;;;;;1071.20;979.60;;;7.10;99.90;;;;;;6155446;23;20489;-72
2023/11/11 03:09:22;;;;;;;1059.17;968.73;;;6.90;99.90;;;;;;6155408;23;20418;-72
2023/11/11 03:11:50;;;;;;;1067.13;976.77;;;6.30;99.90;;;;;;6155008;23;20917;-72
2023/11/11 03:14:19;;;;;;;1038.10;949.80;;;6.90;99.90;;;;;;6155898;23;20737;-72
2023/11/11 03:16:47;;;;;;;1043.00;955.83;;;6.60;99.90;;;;;;6155543;23;20469;-72
2023/11/11 03:19:15;;;;;;;1032.27;947.47;;;6.40;99.90;;;;;;6155289;23;20532;-72
2023/11/11 03:21:42;;;;;;;998.47;914.73;;;6.60;99.90;;;;;;6155122;23;20449;-72
2023/11/11 03:24:09;;;;;;;1000.87;918.17;;;6.50;99.90;;;;;;6154976;23;20410;-72
2023/11/11 03:26:36;;;;;;;992.33;911.47;;;7.10;99.90;;;;;;6155270;23;20410;-72
2023/11/11 03:29:03;;;;;;;947.50;871.83;;;7.10;99.90;;;;;;6155170;23;20508;-72
2023/11/11 03:31:30;;;;;;;971.83;895.33;;;6.60;99.90;;;;;;6155112;23;20919;-72
2023/11/11 03:33:58;;;;;;;984.30;910.07;;;6.60;99.90;;;;;;6153768;23;20425;-72
2023/11/11 03:36:25;;;;;;;1014.30;937.70;;;6.60;99.90;;;;;;6155071;23;20410;-72
2023/11/11 03:38:52;;;;;;;983.83;909.93;;;7.00;99.90;;;;;;6155425;23;20442;-73
2023/11/11 03:41:19;;;;;;;948.57;876.37;;;6.90;99.90;;;;;;6155098;23;20411;-72
2023/11/11 03:43:46;;;;;;;948.67;875.77;;;6.80;99.90;;;;;;6155260;23;20410;-72
2023/11/11 03:46:13;;;;;;;950.03;876.97;;;6.50;99.90;;;;;;6154970;23;20443;-72
2023/11/11 03:48:40;;;;;;;967.00;892.83;;;6.80;99.90;;;;;;6154892;23;20441;-75
2023/11/11 03:51:08;;;;;;;968.33;893.57;;;6.60;99.90;;;;;;6154836;23;20474;-74
2023/11/11 03:53:35;;;;;;;986.90;909.40;;;6.20;99.90;;;;;;6155169;23;20753;-74
2023/11/11 03:56:04;;;;;;;990.63;915.63;;;6.30;99.90;;;;;;6155156;23;20415;-75
2023/11/11 03:58:31;;;;;;;1013.57;937.27;;;6.80;99.90;;;;;;6155055;23;20407;-75
2023/11/11 04:00:58;;;;;;;1031.97;955.20;;;6.80;99.90;;;;;;6155165;23;20449;-74
2023/11/11 04:03:25;;;;;;;999.73;925.83;;;6.40;99.90;;;;;;6154729;23;20902;-74
2023/11/11 04:05:52;;;;;;;990.87;917.97;;;6.40;99.90;;;;;;6155111;23;20418;-75
2023/11/11 04:08:22;;;;;;;981.07;909.77;;;6.90;99.90;;;;;;6154773;23;20433;-74
2023/11/11 04:10:49;;;;;;;983.83;911.60;;;6.50;99.90;;;;;;6155118;23;20414;-72
2023/11/11 04:13:16;;;;;;;971.93;901.43;;;6.40;99.90;;;;;;6155098;23;20470;-72
2023/11/11 04:15:43;;;;;;;981.27;909.87;;;6.80;99.90;;;;;;6155035;23;20410;-72
2023/11/11 04:18:09;;;;;;;988.33;916.67;;;6.70;99.90;;;;;;6154798;23;20462;-73
2023/11/11 04:20:36;;;;;;;982.10;911.23;;;6.50;99.90;;;;;;6155064;23;20410;-72
2023/11/11 04:23:03;;;;;;;979.30;908.37;;;6.80;99.90;;;;;;6154956;23;20415;-72
2023/11/11 04:25:32;;;;;;;971.73;900.17;;;6.30;99.90;;;;;;6154919;23;20445;-72
2023/11/11 04:27:58;;;;;;;978.30;906.00;;;6.30;99.90;;;;;;6154374;23;20519;-72
2023/11/11 04:30:25;;;;;;;971.10;900.17;;;6.60;99.90;;;;;;6155129;23;20843;-72
2023/11/11 04:32:52;;;;;;;981.37;909.97;;;6.70;99.90;;;;;;6154775;23;20815;-72
2023/11/11 04:35:19;;;;;;;958.57;887.80;;;6.60;99.90;;;;;;6154973;23;20395;-71
2023/11/11 04:37:49;;;;;;;953.63;885.57;;;6.60;99.90;;;;;;6154770;23;20428;-72
2023/11/11 04:40:16;;;;;;;960.77;893.67;;;6.30;99.90;;;;;;6154952;23;20421;-72
2023/11/11 04:42:44;;;;;;;946.00;880.03;;;6.60;99.90;;;;;;6154994;23;20512;-72
2023/11/11 04:45:11;;;;;;;957.10;889.63;;;6.30;99.90;;;;;;6155026;23;20778;-72
2023/11/11 04:47:38;;;;;;;951.87;886.17;;;6.20;99.90;;;;;;6156626;23;20411;-72
2023/11/11 04:50:06;;;;;;;955.40;888.10;;;6.60;99.90;;;;;;6156678;23;20410;-72
2023/11/11 04:52:35;;;;;;;949.63;882.67;;;6.40;99.90;;;;;;6156451;23;20411;-72
2023/11/11 04:55:03;;;;;;;968.30;900.23;;;6.40;99.90;;;;;;6156785;23;20410;-72
2023/11/11 04:57:30;;;;;;;960.57;894.80;;;6.60;99.90;;;;;;6156628;23;20960;-72
2023/11/11 04:59:58;;;;;;;920.60;857.90;;;6.50;99.90;;;;;;6156822;23;20767;-73
2023/11/11 05:02:26;;;;;;;911.17;848.37;;;6.40;99.90;;;;;;6156800;23;20410;-72
2023/11/11 05:04:53;;;;;;;914.43;851.67;;;6.50;99.90;;;;;;6156733;23;20494;-73
2023/11/11 05:07:22;;;;;;;938.53;874.27;;;6.70;99.90;;;;;;6156143;23;20953;-74
2023/11/11 05:09:49;;;;;;;956.03;890.73;;;6.60;99.90;;;;;;6156504;23;20445;-74
2023/11/11 05:12:16;;;;;;;962.70;896.10;;;6.70;99.90;;;;;;6155752;23;20407;-75
2023/11/11 05:14:43;;;;;;;962.23;894.47;;;6.60;99.90;;;;;;6156041;23;20410;-74
2023/11/11 05:17:13;;;;;;;970.27;901.07;;;6.60;99.90;;;;;;6155854;23;20476;-74
2023/11/11 05:19:40;;;;;;;984.50;914.30;;;6.50;99.90;;;;;;6156071;23;20475;-75
2023/11/11 05:22:07;;;;;;;994.57;922.30;;;6.50;99.90;;;;;;6156035;23;20410;-75
2023/11/11 05:24:33;;;;;;;999.10;925.50;;;6.40;99.90;;;;;;6156379;23;20499;-75
2023/11/11 05:27:01;;;;;;;1004.27;930.00;;;6.50;99.90;;;;;;6156338;23;20415;-74
2023/11/11 05:29:28;;;;;;;1018.00;942.20;;;6.50;99.90;;;;;;6155776;23;20964;-74
2023/11/11 05:31:55;;;;;;;1012.97;936.07;;;6.50;99.90;;;;;;6155910;23;20414;-75
2023/11/11 05:34:23;;;;;;;1013.03;935.03;;;6.50;99.90;;;;;;6155765;23;20918;-75
2023/11/11 05:36:51;;;;;;;1039.37;958.90;;;6.50;99.90;;;;;;6156331;23;20410;-74
2023/11/11 05:39:18;;;;;;;1012.00;932.40;;;6.50;99.90;;;;;;6156112;23;20412;-75
2023/11/11 05:41:45;;;;;;;1047.07;965.97;;;6.40;99.90;;;;;;6155946;23;20414;-74
2023/11/11 05:44:12;;;;;;;1051.37;970.77;;;6.40;99.90;;;;;;6155773;23;20944;-74
2023/11/11 05:46:39;;;;;;;1050.67;969.67;;;6.30;99.90;;;;;;6156295;23;20445;-75
2023/11/11 05:49:06;;;;;;;1047.60;966.93;;;6.30;99.90;;;;;;6155844;23;20504;-75
2023/11/11 05:51:35;;;;;;;1068.77;985.57;;;6.20;99.90;;;;;;6155783;23;20922;-74
2023/11/11 05:54:03;;;;;;;1082.73;999.37;;;6.10;99.90;;;;;;6156095;23;20523;-74
2023/11/11 05:56:30;;;;;;;1070.90;986.23;;;6.10;99.90;;;;;;6156008;23;20792;-74
2023/11/11 05:58:58;;;;;;;1090.73;999.90;;;6.00;99.90;;;;;;6155459;23;20421;-75
2023/11/11 06:01:26;;;;;;;1093.40;999.90;;;6.00;99.90;;;;;;6156098;23;20908;-74
2023/11/11 06:03:53;;;;;;;1073.17;988.97;;;6.00;99.90;;;;;;6155472;23;20410;-75
2023/11/11 06:06:20;;;;;;;1116.40;999.90;;;6.00;99.90;;;;;;6155893;23;20416;-75
2023/11/11 06:08:49;;;;;;;1081.20;997.33;;;6.00;99.90;;;;;;6155361;23;20438;-74
2023/11/11 06:11:16;;;;;;;1074.83;992.27;;;6.00;99.90;;;;;;6155708;23;20449;-74
2023/11/11 06:13:43;;;;;;;1069.10;986.20;;;6.10;99.90;;;;;;6155836;23;20410;-74
2023/11/11 06:16:10;;;;;;;1056.97;975.27;;;6.10;99.90;;;;;;6156012;23;20485;-74
2023/11/11 06:18:37;;;;;;;1027.97;948.37;;;6.20;99.90;;;;;;6155355;23;20926;-74
2023/11/11 06:21:08;;;;;;;1013.67;935.27;;;6.20;99.90;;;;;;6155590;23;20493;-74
2023/11/11 06:23:35;;;;;;;983.13;907.63;;;6.20;99.90;;;;;;6155895;23;20394;-74
2023/11/11 06:26:03;;;;;;;966.53;891.37;;;6.20;99.90;;;;;;6155435;23;20449;-74
2023/11/11 06:28:30;;;;;;;979.50;903.17;;;6.20;99.90;;;;;;6155510;23;20433;-74
2023/11/11 06:30:57;;;;;;;981.30;905.67;;;6.10;99.90;;;;;;6155496;23;20498;-74
2023/11/11 06:33:24;;;;;;;1003.97;926.00;;;6.00;99.90;;;;;;6155248;23;20911;-74
2023/11/11 06:35:51;;;;;;;980.00;903.40;;;6.00;99.90;;;;;;6155329;23;20460;-72
2023/11/11 06:38:18;;;;;;;987.87;910.10;;;6.00;99.90;;;;;;6155218;23;20412;-71
2023/11/11 06:40:45;;;;;;;996.03;919.17;;;5.90;99.90;;;;;;6155347;23;20993;-71
2023/11/11 06:43:14;;;;;;;993.03;915.53;;;6.00;99.90;;;;;;6155314;23;20448;-72
2023/11/11 06:45:41;;;;;;;970.23;893.20;;;5.90;99.90;;;;;;6155577;23;20410;-72
2023/11/11 06:48:08;;;;;;;968.73;892.40;;;5.80;99.90;;;;;;6155472;23;20761;-72
2023/11/11 06:50:35;;;;;;;986.00;903.80;;;5.80;99.90;;;;;;6155680;23;20420;-72
2023/11/11 06:53:02;;;;;;;983.47;905.27;;;5.80;99.90;;;;;;6155643;23;20493;-74
2023/11/11 06:55:30;;;;;;;981.77;903.20;;;5.80;99.90;;;;;;6155113;23;20493;-74
2023/11/11 06:57:57;;;;;;;962.33;886.03;;;5.70;99.90;;;;;;6155369;23;20410;-74
2023/11/11 07:00:25;;;;;;;976.37;897.00;;;5.70;99.90;;;;;;6155545;23;20770;-72
2023/11/11 07:02:54;;;;;;;966.67;889.37;;;5.70;99.90;;;;;;6155588;23;20553;-72
2023/11/11 07:05:21;;;;;;;958.97;881.57;;;5.70;99.90;;;;;;6155479;23;20415;-72
2023/11/11 07:07:48;;;;;;;946.47;870.87;;;5.70;99.90;;;;;;6154687;23;20441;-72
2023/11/11 07:10:15;;;;;;;972.40;894.37;;;5.70;99.90;;;;;;6155020;23;20526;-72
2023/11/11 07:12:43;;;;;;;958.23;880.43;;;5.80;99.90;;;;;;6155124;23;20449;-72
2023/11/11 07:15:11;;;;;;;951.50;874.63;;;5.70;99.90;;;;;;6155327;23;20410;-72
2023/11/11 07:17:41;;;;;;;952.67;875.50;;;5.80;99.90;;;;;;6154929;23;20949;-72
2023/11/11 07:20:10;;;;;;;946.93;869.40;;;5.70;99.90;;;;;;6155162;23;20434;-72
2023/11/11 07:22:37;;;;;;;956.63;878.33;;;5.70;99.90;;;;;;6155366;23;20413;-72
2023/11/11 07:25:05;;;;;;;970.60;890.20;;;5.70;99.90;;;;;;6155319;23;20451;-72
2023/11/11 07:27:32;;;;;;;970.60;890.83;;;5.70;99.90;;;;;;6155166;23;20476;-72
2023/11/11 07:29:59;;;;;;;960.57;882.27;;;5.70;99.90;;;;;;6153433;23;20542;-72
2023/11/11 07:32:25;;;;;;;945.00;867.90;;;5.80;99.90;;;;;;6154618;23;20409;-72
2023/11/11 07:34:54;;;;;;;938.00;861.50;;;5.80;99.90;;;;;;6154694;23;20485;-71
2023/11/11 07:37:21;;;;;;;935.40;859.03;;;5.80;99.90;;;;;;6154580;23;20409;-72
2023/11/11 07:39:48;;;;;;;934.30;860.17;;;5.80;99.90;;;;;;6154726;23;20412;-71
2023/11/11 07:42:15;;;;;;;926.50;853.17;;;5.90;99.90;;;;;;6154386;23;20428;-72
2023/11/11 07:44:42;;;;;;;922.47;848.97;;;5.90;99.90;;;;;;6154298;23;20448;-71
2023/11/11 07:47:10;;;;;;;921.50;849.07;;;6.00;99.90;;;;;;6154637;23;20409;-72
2023/11/11 07:49:37;;;;;;;901.03;830.00;;;6.00;99.90;;;;;;6154024;23;20937;-72
2023/11/11 07:52:06;;;;;;;908.07;837.80;;;6.10;99.90;;;;;;6154891;23;20414;-72
2023/11/11 07:54:35;;;;;;;904.40;836.40;;;6.10;99.90;;;;;;6154773;23;20738;-72
2023/11/11 07:57:03;;;;;;;899.53;831.63;;;6.10;99.90;;;;;;6154406;23;20468;-72
2023/11/11 07:59:30;;;;;;;894.60;828.43;;;6.10;99.90;;;;;;6154476;23;20413;-74
2023/11/11 08:01:58;;;;;;;897.53;832.40;;;6.10;99.90;;;;;;6154278;23;20413;-74
2023/11/11 08:04:26;;;;;;;890.17;826.60;;;6.10;99.90;;;;;;6154095;23;20418;-74
2023/11/11 08:06:53;;;;;;;890.07;829.67;;;6.10;99.90;;;;;;6154657;23;20489;-74
2023/11/11 08:09:21;;;;;;;893.80;831.27;;;6.10;99.90;;;;;;6154429;23;20434;-74
2023/11/11 08:11:49;;;;;;;880.17;821.97;;;6.20;99.90;;;;;;6154608;23;20752;-74
2023/11/11 08:14:16;;;;;;;891.60;830.47;;;6.30;99.90;;;;;;6154432;23;20461;-74
2023/11/11 08:16:43;;;;;;;882.27;821.53;;;6.40;99.90;;;;;;6154492;23;20461;-74
2023/11/11 08:19:10;;;;;;;883.03;822.03;;;6.30;99.90;;;;;;6154553;23;20406;-74
2023/11/11 08:21:38;;;;;;;887.70;825.40;;;6.40;99.90;;;;;;6156855;23;20409;-74
2023/11/11 08:24:06;;;;;;;885.57;825.30;;;6.40;99.90;;;;;;6156957;23;20717;-74
2023/11/11 08:26:34;;;;;;;896.37;835.50;;;6.60;99.90;;;;;;6156449;23;20891;-72
2023/11/11 08:29:01;;;;;;;890.03;829.60;;;6.70;99.90;;;;;;6157017;23;20433;-72
2023/11/11 08:31:28;;;;;;;866.43;808.97;;;7.00;99.90;;;;;;6156685;23;20415;-71
2023/11/11 08:33:55;;;;;;;854.40;801.50;;;7.20;99.90;;;;;;6156232;23;20424;-71
2023/11/11 08:36:24;;;;;;;818.60;772.50;;;7.40;99.90;;;;;;6156575;23;20484;-72
2023/11/11 08:38:52;;;;;;;789.13;747.70;;;7.40;99.90;;;;;;6157919;23;20408;-72
2023/11/11 08:41:19;;;;;;;722.77;689.07;;;7.50;99.90;;;;;;6158244;23;20445;-72
2023/11/11 08:43:47;;;;;;;752.63;716.23;;;7.60;99.90;;;;;;6157278;23;20434;-72
2023/11/11 08:46:14;;;;;;;747.00;710.27;;;7.60;99.90;;;;;;6156940;23;20411;-72
2023/11/11 08:48:41;;;;;;;716.50;684.37;;;7.70;99.90;;;;;;6156304;23;20499;-71
2023/11/11 08:51:09;;;;;;;356.38;343.50;;;7.80;99.90;;;;;;6155168;23;20876;-72
2023/11/11 08:53:36;;;;;;;301.17;289.87;;;7.80;99.90;;;;;;6156340;23;20260;-72
2023/11/11 08:56:03;;;;;;;296.10;285.47;;;7.90;99.90;;;;;;6156452;23;20448;-72
2023/11/11 08:58:30;;;;;;;322.67;310.67;;;7.90;99.90;;;;;;6156112;23;20409;-71
2023/11/11 09:00:59;;;;;;;343.53;331.10;;;8.00;99.90;;;;;;6156681;23;20448;-72
2023/11/11 09:03:27;;;;;;;344.00;332.07;;;8.00;99.90;;;;;;6156572;23;20425;-72
2023/11/11 09:05:55;;;;;;;367.90;355.10;;;8.10;99.90;;;;;;6156733;23;20417;-72
2023/11/11 09:08:23;;;;;;;302.77;292.33;;;8.20;99.90;;;;;;6155937;23;20413;-71
2023/11/11 09:10:50;;;;;;;279.17;269.33;;;8.20;99.90;;;;;;6157180;23;20518;-71
2023/11/11 09:13:22;;;;;;;289.73;279.53;;;8.30;99.90;;;;;;6156915;23;20409;-71
2023/11/11 09:15:49;;;;;;;237.67;228.77;;;8.40;99.90;;;;;;6156583;23;20401;-72
2023/11/11 09:18:18;;;;;;;115.50;109.57;;;8.40;99.90;;;;;;6156600;23;20448;-72
2023/11/11 09:20:45;;;;;;;87.57;83.43;;;8.40;99.90;;;;;;6156647;23;20416;-69
2023/11/11 09:23:12;;;;;;;85.30;81.07;;;8.40;99.90;;;;;;6156380;23;20794;-69
2023/11/11 09:25:39;;;;;;;103.80;98.87;;;8.60;99.90;;;;;;6156206;23;20743;-69
2023/11/11 09:28:07;;;;;;;67.70;63.80;;;8.80;99.90;;;;;;6155592;23;20501;-69
2023/11/11 09:30:34;;;;;;;75.00;71.37;;;8.80;99.90;;;;;;6155582;23;20476;-69
2023/11/11 09:33:02;;;;;;;72.17;68.03;;;8.80;99.90;;;;;;6155486;23;20419;-69
2023/11/11 09:35:30;;;;;;;45.43;42.53;;;8.80;99.90;;;;;;6155931;23;20417;-70
2023/11/11 09:37:57;;;;;;;36.80;33.87;;;8.80;99.90;;;;;;6156195;23;20412;-69
2023/11/11 09:40:24;;;;;;;35.60;33.10;;;8.90;99.90;;;;;;6156278;23;20406;-69
2023/11/11 09:42:50;;;;;;;28.97;26.60;;;9.00;99.90;;;;;;6156666;23;20990;-68
2023/11/11 09:45:19;;;;;;;19.67;17.67;;;9.00;99.90;;;;;;6155667;23;20413;-69
2023/11/11 09:47:51;;;;;;;22.40;20.30;;;8.90;99.90;;;;;;6156523;23;20426;-68
2023/11/11 09:50:22;;;;;;;23.73;21.60;;;8.80;99.90;;;;;;6156709;23;20455;-68
2023/11/11 09:52:52;;;;;;;20.23;18.73;;;8.80;99.90;;;;;;6156704;23;20417;-68
2023/11/11 09:55:20;;;;;;;22.83;20.70;;;8.80;99.90;;;;;;6156697;23;20416;-69
2023/11/11 09:57:49;;;;;;;19.37;15.50;;;8.90;99.90;;;;;;6156138;23;20906;-68
2023/11/11 10:00:17;;;;;;;19.60;17.50;;;8.90;99.90;;;;;;6156795;23;20407;-68
2023/11/11 10:02:44;;;;;;;18.00;14.70;;;9.00;99.90;;;;;;6156741;23;20441;-67
2023/11/11 10:05:12;;;;;;;18.80;15.20;;;9.00;99.90;;;;;;6155823;23;20411;-68
2023/11/11 10:07:40;;;;;;;19.50;14.27;;;9.00;99.90;;;;;;6156084;23;20464;-67
2023/11/11 10:10:11;;;;;;;17.90;16.00;;;9.00;99.90;;;;;;6155204;23;20443;-68
2023/11/11 10:12:39;;;;;;;14.60;11.83;;;8.90;99.90;;;;;;6154553;23;20852;-68
2023/11/11 10:15:08;;;;;;;15.00;11.40;;;8.90;99.90;;;;;;6155071;23;20494;-68
2023/11/11 10:17:38;;;;;;;15.57;13.30;;;9.00;99.90;;;;;;6155281;23;20450;-68
2023/11/11 10:20:10;;;;;;;21.97;14.03;;;9.30;99.90;;;;;;6155865;23;20422;-68
2023/11/11 10:22:41;;;;;;;20.37;14.17;;;9.30;99.90;;;;;;6155663;23;20395;-68
2023/11/11 10:25:11;;;;;;;17.80;13.03;;;9.40;99.90;;;;;;6155644;23;20478;-69
2023/11/11 10:27:38;;;;;;;11.50;9.30;;;9.30;99.90;;;;;;6155644;23;20903;-68
2023/11/11 10:30:16;;;;;;;20.90;11.50;;;9.10;99.90;;;;;;6154833;23;20462;-72
2023/11/11 10:32:48;;;;;;;16.40;10.77;;;9.20;99.90;;;;;;6155176;23;20420;-72
2023/11/11 10:35:15;;;;;;;15.20;9.00;;;9.70;99.90;;;;;;6155300;23;20397;-72
2023/11/11 10:37:42;;;;;;;10.27;7.77;;;10.10;99.90;;;;;;6155344;23;20501;-72
2023/11/11 10:40:16;;;;;;;11.57;6.83;;;10.60;99.90;;;;;;6155261;23;20406;-72
2023/11/11 10:42:45;;;;;;;15.43;8.05;;;11.00;99.90;;;;;;6154763;23;20413;-71
2023/11/11 10:45:15;;;;;;;15.20;6.90;;;11.50;99.90;;;;;;6155786;23;20201;-72
2023/11/11 10:47:42;;;;;;;12.27;6.60;;;11.50;98.20;;;;;;6156061;23;20410;-72
2023/11/11 10:50:10;;;;;;;11.70;5.43;;;11.60;95.00;;;;;;6155937;23;20410;-73
2023/11/11 10:52:38;;;;;;;9.93;5.10;;;11.70;98.20;;;;;;6155833;23;20417;-72
2023/11/11 10:55:08;;;;;;;11.03;5.20;;;11.60;96.60;;;;;;6156218;23;20474;-72
2023/11/11 10:57:40;;;;;;;16.63;5.57;;;11.10;94.80;;;;;;6155707;23;20441;-72
2023/11/11 11:00:16;;;;;;;8.53;5.47;;;10.80;98.00;;;;;;6155917;23;20461;-73
2023/11/11 11:02:46;;;;;;;11.67;5.03;;;10.80;98.00;;;;;;6155714;23;20397;-72
2023/11/11 11:05:19;;;;;;;9.47;4.97;;;10.60;97.90;;;;;;6155300;23;20738;-72
2023/11/11 11:07:53;;;;;;;10.43;4.60;;;10.30;97.70;;;;;;6154531;23;20394;-72
2023/11/11 11:10:29;;;;;;;21.33;5.40;;;10.30;99.70;;;;;;6155163;23;20397;-72
2023/11/11 11:13:02;;;;;;;11.73;6.00;;;10.20;99.00;;;;;;6155111;23;20397;-72
2023/11/11 11:15:29;;;;;;;14.80;5.80;;;10.40;97.80;;;;;;6155421;23;20401;-72
2023/11/11 11:17:56;;;;;;;13.87;5.73;;;10.70;97.90;;;;;;6155245;23;20493;-72
2023/11/11 11:20:26;;;;;;;9.90;5.50;;;11.10;98.10;;;;;;6154976;23;21013;-72
2023/11/11 11:22:59;;;;;;;13.00;5.33;;;11.60;95.00;;;;;;6154718;23;20410;-72
2023/11/11 11:25:33;;;;;;;13.33;5.00;;;11.30;94.00;;;;;;6155322;23;20724;-72
2023/11/11 11:28:21;;;;;;;12.50;4.40;;;11.40;94.90;;;;;;6155389;23;20413;-72
2023/11/11 11:30:53;;;;;;;8.70;4.30;;;10.80;94.70;;;;;;6155160;23;20481;-72
2023/11/11 11:33:21;;;;;;;9.00;4.50;;;10.30;94.50;;;;;;6154707;23;20417;-72
2023/11/11 11:35:49;;;;;;;12.93;5.00;;;10.40;97.70;;;;;;6154920;23;20437;-72
2023/11/11 11:38:32;;;;;;;8.60;4.67;;;10.30;96.00;;;;;;6154790;23;20452;-72
2023/11/11 11:41:06;;;;;;;14.63;4.40;;;10.10;97.60;;;;;;6151937;23;20471;-72
2023/11/11 11:43:35;;;;;;;9.53;4.20;;;10.10;97.70;;;;;;6154497;23;20950;-72
2023/11/11 11:46:04;;;;;;;14.13;4.50;;;10.10;97.60;;;;;;6155319;23;20749;-72
2023/11/11 11:48:31;;;;;;;8.43;3.73;;;9.90;98.00;;;;;;6154700;23;20413;-72
2023/11/11 11:51:12;;;;;;;8.73;4.07;;;9.90;98.00;;;;;;6154889;23;20407;-72
2023/11/11 11:53:41;;;;;;;8.13;4.43;;;10.00;97.60;;;;;;6154542;23;20885;-71
2023/11/11 11:56:10;;;;;;;10.30;3.60;;;10.10;97.60;;;;;;6154277;23;20897;-72
2023/11/11 11:58:46;;;;;;;7.07;3.77;;;10.10;97.50;;;;;;6154879;23;20412;-72
2023/11/11 12:01:22;;;;;;;16.30;6.00;;;10.00;97.60;;;;;;6154601;23;20952;-72
2023/11/11 12:03:49;;;;;;;10.87;5.03;;;9.90;98.00;;;;;;6153931;23;20849;-72
2023/11/11 12:06:16;;;;;;;11.97;3.83;;;10.10;97.70;;;;;;6153943;23;20444;-72
2023/11/11 12:08:47;;;;;;;8.67;4.00;;;10.20;97.70;;;;;;6153655;23;20766;-71
2023/11/11 12:11:14;;;;;;;10.90;3.80;;;10.10;97.70;;;;;;6154472;23;20752;-72
2023/11/11 12:13:41;;;;;;;10.70;4.27;;;10.00;97.60;;;;;;6154329;23;20469;-72
2023/11/11 12:16:11;;;;;;;11.07;5.38;;;9.90;98.90;;;;;;6153548;23;20423;-71
2023/11/11 12:18:38;;;;;;;9.67;4.80;;;9.80;99.90;;;;;;6156577;23;20542;-71
2023/11/11 12:21:05;;;;;;;14.70;4.47;;;9.70;99.60;;;;;;6155764;23;20503;-71
2023/11/11 12:23:32;;;;;;;11.83;4.27;;;9.60;98.60;;;;;;6155049;23;20493;-69
2023/11/11 12:25:59;;;;;;;7.33;3.50;;;9.50;98.90;;;;;;6154380;23;20971;-68